createdAt,value
2023-07-23T00:01:21.676Z,35.80
2023-07-23T00:03:48.266Z,35.68
2023-07-23T00:06:14.917Z,35.74
2023-07-23T00:08:41.546Z,35.87
2023-07-23T00:11:08.131Z,35.88
2023-07-23T00:13:34.798Z,36.07
2023-07-23T00:16:01.483Z,36.26
2023-07-23T00:18:28.077Z,36.30
2023-07-23T00:20:54.716Z,36.25
2023-07-23T00:23:21.321Z,36.49
2023-07-23T00:25:47.980Z,36.72
2023-07-23T00:28:14.626Z,36.80
2023-07-23T00:30:41.177Z,36.67
2023-07-23T00:33:07.777Z,37.07
2023-07-23T00:35:34.306Z,37.16
2023-07-23T00:38:00.835Z,37.02
2023-07-23T00:40:27.449Z,37.34
2023-07-23T00:42:53.993Z,37.10
2023-07-23T00:45:20.768Z,37.19
2023-07-23T00:47:47.386Z,37.01
2023-07-23T00:50:14.089Z,37.60
2023-07-23T00:52:40.688Z,37.13
2023-07-23T00:55:07.278Z,37.50
2023-07-23T00:57:33.822Z,37.46
2023-07-23T01:00:00.431Z,37.55
2023-07-23T01:02:27.085Z,37.67
2023-07-23T01:04:53.767Z,37.67
2023-07-23T01:07:20.302Z,37.52
2023-07-23T01:09:46.947Z,38.04
2023-07-23T01:12:13.599Z,37.99
2023-07-23T01:14:40.283Z,38.20
2023-07-23T01:17:06.868Z,37.98
2023-07-23T01:19:33.479Z,38.24
2023-07-23T01:22:00.073Z,38.16
2023-07-23T01:24:26.674Z,37.96
2023-07-23T01:26:53.239Z,37.98
2023-07-23T01:29:19.772Z,38.21
2023-07-23T01:31:46.372Z,38.36
2023-07-23T01:34:13.008Z,38.28
2023-07-23T01:36:39.665Z,38.49
2023-07-23T01:39:06.262Z,38.04
2023-07-23T01:41:32.890Z,38.51
2023-07-23T01:43:59.564Z,38.32
2023-07-23T01:46:26.172Z,38.37
2023-07-23T01:48:52.716Z,38.22
2023-07-23T01:51:19.284Z,38.25
2023-07-23T01:53:45.917Z,38.36
2023-07-23T01:56:12.580Z,38.83
2023-07-23T01:58:39.186Z,38.99
2023-07-23T02:01:05.919Z,38.79
2023-07-23T02:03:32.722Z,38.71
2023-07-23T02:05:59.329Z,38.79
2023-07-23T02:08:25.885Z,38.72
2023-07-23T02:10:52.494Z,38.89
2023-07-23T02:13:19.050Z,39.24
2023-07-23T02:15:45.643Z,39.34
2023-07-23T02:18:12.239Z,39.42
2023-07-23T02:20:38.804Z,39.26
2023-07-23T02:23:05.389Z,39.06
2023-07-23T02:25:32.020Z,39.43
2023-07-23T02:27:58.533Z,39.18
2023-07-23T02:30:25.090Z,39.31
2023-07-23T02:32:51.698Z,39.23
2023-07-23T02:35:18.312Z,39.09
2023-07-23T02:37:44.940Z,39.24
2023-07-23T02:40:11.513Z,39.55
2023-07-23T02:42:38.054Z,39.34
2023-07-23T02:45:04.678Z,39.44
2023-07-23T02:47:31.277Z,39.71
2023-07-23T02:49:57.879Z,39.67
2023-07-23T02:52:24.459Z,39.63
2023-07-23T02:54:50.985Z,39.71
2023-07-23T02:57:17.656Z,39.64
2023-07-23T02:59:44.316Z,39.91
2023-07-23T03:02:10.943Z,40.04
2023-07-23T03:04:37.626Z,40.18
2023-07-23T03:07:04.226Z,39.94
2023-07-23T03:09:30.801Z,39.89
2023-07-23T03:11:57.421Z,39.82
2023-07-23T03:14:24.006Z,39.93
2023-07-23T03:16:50.534Z,39.54
2023-07-23T03:19:17.118Z,39.85
2023-07-23T03:21:43.769Z,40.04
2023-07-23T03:24:10.357Z,39.85
2023-07-23T03:26:36.971Z,39.89
2023-07-23T03:29:03.653Z,40.14
2023-07-23T03:31:30.595Z,39.81
2023-07-23T03:33:57.345Z,40.09
2023-07-23T03:36:23.934Z,39.99
2023-07-23T03:38:50.485Z,39.88
2023-07-23T03:41:17.120Z,40.33
2023-07-23T03:43:44.747Z,40.32
2023-07-23T03:46:11.415Z,40.22
2023-07-23T03:48:38.027Z,39.91
2023-07-23T03:51:04.599Z,39.99
2023-07-23T03:53:31.172Z,40.32
2023-07-23T03:55:57.773Z,40.29
2023-07-23T03:58:24.337Z,40.26
2023-07-23T04:00:50.920Z,40.37
2023-07-23T04:03:17.516Z,40.28
2023-07-23T04:05:44.089Z,40.01
2023-07-23T04:08:10.678Z,40.08
2023-07-23T04:10:37.305Z,40.51
2023-07-23T04:13:03.920Z,40.24
2023-07-23T04:15:30.498Z,40.04
2023-07-23T04:17:57.096Z,39.95
2023-07-23T04:20:23.650Z,40.13
2023-07-23T04:22:50.221Z,40.08
2023-07-23T04:25:16.785Z,40.13
2023-07-23T04:27:43.421Z,40.13
2023-07-23T04:30:10.061Z,40.28
2023-07-23T04:32:36.726Z,40.24
2023-07-23T04:35:03.561Z,40.22
2023-07-23T04:37:30.169Z,40.04
2023-07-23T04:39:56.706Z,40.70
2023-07-23T04:42:23.202Z,40.39
2023-07-23T04:44:49.829Z,40.36
2023-07-23T04:47:16.418Z,40.48
2023-07-23T04:49:42.983Z,40.16
2023-07-23T04:52:09.580Z,40.47
2023-07-23T04:54:36.152Z,40.26
2023-07-23T04:57:02.795Z,40.44
2023-07-23T04:59:29.367Z,40.43
2023-07-23T05:01:55.955Z,40.75
2023-07-23T05:04:22.510Z,40.97
2023-07-23T05:06:49.154Z,40.51
2023-07-23T05:09:15.805Z,40.91
2023-07-23T05:11:42.384Z,40.74
2023-07-23T05:14:08.958Z,40.92
2023-07-23T05:16:35.567Z,41.01
2023-07-23T05:19:02.115Z,41.25
2023-07-23T05:21:28.958Z,41.32
2023-07-23T05:23:55.728Z,41.20
2023-07-23T05:26:22.250Z,41.46
2023-07-23T05:28:48.867Z,41.56
2023-07-23T05:31:15.496Z,41.31
2023-07-23T05:33:42.115Z,41.50
2023-07-23T05:36:08.749Z,41.41
2023-07-23T05:38:35.311Z,41.33
2023-07-23T05:41:01.905Z,41.75
2023-07-23T05:43:31.304Z,41.44
2023-07-23T05:45:57.880Z,41.19
2023-07-23T05:48:24.421Z,41.37
2023-07-23T05:50:51.036Z,41.46
2023-07-23T05:53:17.688Z,41.32
2023-07-23T05:55:44.234Z,41.16
2023-07-23T05:58:10.810Z,39.51
2023-07-23T06:00:37.409Z,38.89
2023-07-23T06:03:04.202Z,38.56
2023-07-23T06:05:30.847Z,38.60
2023-07-23T06:07:57.456Z,38.43
2023-07-23T06:10:24.092Z,38.79
2023-07-23T06:12:50.675Z,38.08
2023-07-23T06:15:17.374Z,37.51
2023-07-23T06:17:44.033Z,37.57
2023-07-23T06:20:10.648Z,37.32
2023-07-23T06:22:37.190Z,37.85
2023-07-23T06:25:03.837Z,37.92
2023-07-23T06:27:30.443Z,37.81
2023-07-23T06:29:57.016Z,37.80
2023-07-23T06:32:23.634Z,38.11
2023-07-23T06:34:50.322Z,37.05
2023-07-23T06:37:16.910Z,36.58
2023-07-23T06:39:43.544Z,36.50
2023-07-23T06:42:10.132Z,36.46
2023-07-23T06:44:36.739Z,36.63
2023-07-23T06:47:03.388Z,36.15
2023-07-23T06:49:30.123Z,36.53
2023-07-23T06:51:56.833Z,36.46
2023-07-23T06:54:23.455Z,36.86
2023-07-23T06:56:50.036Z,36.63
2023-07-23T06:59:16.598Z,36.64
2023-07-23T07:01:43.239Z,36.52
2023-07-23T07:04:09.836Z,36.16
2023-07-23T07:06:36.463Z,36.07
2023-07-23T07:09:03.050Z,35.79
2023-07-23T07:11:29.800Z,35.93
2023-07-23T07:13:56.527Z,35.92
2023-07-23T07:16:23.126Z,35.56
2023-07-23T07:18:49.775Z,35.94
2023-07-23T07:21:16.352Z,36.07
2023-07-23T07:23:42.939Z,35.80
2023-07-23T07:26:09.573Z,35.83
2023-07-23T07:28:36.157Z,35.80
2023-07-23T07:31:02.776Z,35.64
2023-07-23T07:33:29.400Z,35.63
2023-07-23T07:35:58.856Z,35.33
2023-07-23T07:38:25.419Z,36.08
2023-07-23T07:40:52.010Z,35.84
2023-07-23T07:43:18.597Z,35.85
2023-07-23T07:45:45.269Z,36.00
2023-07-23T07:48:11.895Z,36.38
2023-07-23T07:50:38.448Z,36.05
2023-07-23T07:53:05.108Z,36.10
2023-07-23T07:55:31.691Z,36.11
2023-07-23T07:57:58.230Z,36.17
2023-07-23T08:00:24.825Z,36.35
2023-07-23T08:02:51.562Z,36.61
2023-07-23T08:05:18.435Z,36.54
2023-07-23T08:07:45.055Z,37.21
2023-07-23T08:10:11.640Z,37.23
2023-07-23T08:12:38.250Z,36.82
2023-07-23T08:15:04.837Z,36.98
2023-07-23T08:17:31.435Z,37.42
2023-07-23T08:19:58.025Z,37.72
2023-07-23T08:22:24.683Z,37.84
2023-07-23T08:24:51.445Z,38.01
2023-07-23T08:27:18.025Z,38.01
2023-07-23T08:29:44.674Z,37.58
2023-07-23T08:32:11.256Z,37.97
2023-07-23T08:34:37.823Z,37.75
2023-07-23T08:37:04.340Z,38.72
2023-07-23T08:39:30.944Z,38.79
2023-07-23T08:41:57.729Z,38.80
2023-07-23T08:44:24.371Z,38.65
2023-07-23T08:46:50.933Z,38.56
2023-07-23T08:49:17.452Z,38.14
2023-07-23T08:51:44.000Z,37.79
2023-07-23T08:54:10.560Z,37.68
2023-07-23T08:56:37.960Z,38.30
2023-07-23T08:59:04.670Z,38.49
2023-07-23T09:01:31.432Z,38.70
2023-07-23T09:03:58.387Z,38.91
2023-07-23T09:06:25.018Z,38.61
2023-07-23T09:08:51.567Z,38.64
2023-07-23T09:11:18.143Z,38.96
2023-07-23T09:13:44.770Z,38.66
2023-07-23T09:16:11.342Z,38.60
2023-07-23T09:18:37.848Z,38.30
2023-07-23T09:21:04.381Z,38.29
2023-07-23T09:23:30.870Z,38.06
2023-07-23T09:25:57.419Z,37.82
2023-07-23T09:28:23.992Z,38.05
2023-07-23T09:30:50.721Z,38.76
2023-07-23T09:33:17.291Z,39.17
2023-07-23T09:35:43.857Z,38.53
2023-07-23T09:38:10.447Z,38.41
2023-07-23T09:40:36.997Z,38.44
2023-07-23T09:43:03.605Z,38.78
2023-07-23T09:45:30.146Z,39.49
2023-07-23T09:48:06.050Z,38.70
2023-07-23T09:50:41.144Z,38.54
2023-07-23T09:53:07.798Z,38.62
2023-07-23T09:55:34.373Z,38.75
2023-07-23T09:58:00.902Z,38.63
2023-07-23T10:00:27.437Z,38.38
2023-07-23T10:02:54.001Z,38.45
2023-07-23T10:05:20.613Z,39.19
2023-07-23T10:07:47.152Z,38.91
2023-07-23T10:10:13.697Z,39.19
2023-07-23T10:12:40.223Z,38.86
2023-07-23T10:15:07.053Z,39.00
2023-07-23T10:17:33.662Z,39.13
2023-07-23T10:20:00.234Z,38.84
2023-07-23T10:22:26.777Z,38.93
2023-07-23T10:24:53.480Z,38.42
2023-07-23T10:27:20.124Z,38.30
2023-07-23T10:29:46.648Z,38.05
2023-07-23T10:32:13.189Z,37.88
2023-07-23T10:34:39.729Z,37.65
2023-07-23T10:37:06.429Z,37.83
2023-07-23T10:39:33.003Z,38.06
2023-07-23T10:41:59.592Z,37.82
2023-07-23T10:44:26.344Z,38.03
2023-07-23T10:46:52.884Z,38.19
2023-07-23T10:49:19.430Z,38.07
2023-07-23T10:51:46.084Z,38.05
2023-07-23T10:54:12.625Z,38.13
2023-07-23T10:56:39.159Z,38.80
2023-07-23T10:59:05.691Z,39.33
2023-07-23T11:01:32.376Z,39.23
2023-07-23T11:03:59.226Z,40.32
2023-07-23T11:06:25.736Z,39.79
2023-07-23T11:08:52.305Z,40.34
2023-07-23T11:11:18.853Z,38.91
2023-07-23T11:13:45.398Z,38.09
2023-07-23T11:16:11.985Z,38.54
2023-07-23T11:18:40.249Z,38.37
2023-07-23T11:21:07.770Z,38.06
2023-07-23T11:23:34.485Z,38.19
2023-07-23T11:26:01.411Z,37.88
2023-07-23T11:28:28.061Z,38.17
2023-07-23T11:30:54.575Z,37.47
2023-07-23T11:33:21.116Z,36.69
2023-07-23T11:35:48.301Z,36.84
2023-07-23T11:38:16.922Z,37.16
2023-07-23T11:40:43.441Z,37.09
2023-07-23T11:43:10.072Z,37.03
2023-07-23T11:45:36.935Z,37.00
2023-07-23T11:48:03.561Z,36.88
2023-07-23T11:50:30.193Z,36.92
2023-07-23T11:52:56.782Z,36.25
2023-07-23T11:55:23.601Z,36.02
2023-07-23T11:57:50.183Z,35.50
2023-07-23T12:00:16.707Z,35.16
2023-07-23T12:02:43.295Z,35.25
2023-07-23T12:05:10.032Z,34.73
2023-07-23T12:07:36.564Z,34.05
2023-07-23T12:10:03.112Z,34.63
2023-07-23T12:12:29.848Z,34.07
2023-07-23T12:14:56.387Z,33.46
2023-07-23T12:17:22.991Z,33.44
2023-07-23T12:19:49.572Z,33.13
2023-07-23T12:22:16.156Z,33.66
2023-07-23T12:24:43.299Z,33.33
2023-07-23T12:27:10.346Z,33.37
2023-07-23T12:29:36.903Z,33.01
2023-07-23T12:32:03.468Z,33.18
2023-07-23T12:34:30.047Z,32.41
2023-07-23T12:36:56.577Z,32.52
2023-07-23T12:39:23.615Z,32.10
2023-07-23T12:41:50.213Z,32.17
2023-07-23T12:44:16.800Z,31.98
2023-07-23T12:46:43.434Z,32.59
2023-07-23T12:49:10.050Z,32.18
2023-07-23T12:51:36.811Z,32.29
2023-07-23T12:54:03.342Z,32.05
2023-07-23T12:56:30.146Z,32.18
2023-07-23T12:58:57.129Z,32.13
2023-07-23T13:01:23.788Z,33.00
2023-07-23T13:03:50.568Z,34.34
2023-07-23T13:06:17.345Z,34.69
2023-07-23T13:08:43.925Z,34.75
2023-07-23T13:11:10.525Z,34.70
2023-07-23T13:13:37.050Z,32.11
2023-07-23T13:16:03.638Z,31.21
2023-07-23T13:18:32.060Z,31.59
2023-07-23T13:20:58.632Z,31.79
2023-07-23T13:23:25.312Z,31.27
2023-07-23T13:25:52.052Z,30.98
2023-07-23T13:28:18.591Z,31.82
2023-07-23T13:30:45.399Z,31.97
2023-07-23T13:33:12.370Z,32.12
2023-07-23T13:35:39.030Z,32.43
2023-07-23T13:38:05.574Z,32.65
2023-07-23T13:40:32.089Z,33.33
2023-07-23T13:42:58.669Z,34.66
2023-07-23T13:45:25.284Z,33.73
2023-07-23T13:47:51.977Z,33.13
2023-07-23T13:50:18.573Z,35.63
2023-07-23T13:52:45.206Z,35.93
2023-07-23T13:55:11.754Z,36.04
2023-07-23T13:57:38.287Z,35.92
2023-07-23T14:00:04.930Z,36.07
2023-07-23T14:02:31.651Z,36.15
2023-07-23T14:04:58.218Z,36.26
2023-07-23T14:07:24.776Z,35.69
2023-07-23T14:09:51.341Z,36.44
2023-07-23T14:12:17.924Z,36.38
2023-07-23T14:14:44.484Z,36.34
2023-07-23T14:17:11.012Z,36.55
2023-07-23T14:19:37.596Z,36.84
2023-07-23T14:22:04.413Z,37.12
2023-07-23T14:24:31.487Z,37.09
2023-07-23T14:26:57.992Z,37.23
2023-07-23T14:29:24.628Z,37.43
2023-07-23T14:31:51.313Z,37.30
2023-07-23T14:34:17.984Z,36.37
2023-07-23T14:36:44.932Z,36.22
2023-07-23T14:39:11.488Z,37.10
2023-07-23T14:41:38.505Z,37.06
2023-07-23T14:44:05.087Z,37.29
2023-07-23T14:46:31.700Z,36.35
2023-07-23T14:48:58.351Z,36.64
2023-07-23T14:51:24.937Z,36.75
2023-07-23T14:53:51.626Z,37.01
2023-07-23T14:56:18.785Z,37.37
2023-07-23T14:58:46.027Z,36.40
2023-07-23T15:01:12.613Z,36.25
2023-07-23T15:03:39.317Z,35.65
2023-07-23T15:06:06.013Z,35.73
2023-07-23T15:08:32.851Z,35.65
2023-07-23T15:10:59.807Z,35.30
2023-07-23T15:13:26.540Z,35.44
2023-07-23T15:15:53.496Z,35.14
2023-07-23T15:18:20.208Z,35.57
2023-07-23T15:20:52.205Z,35.15
2023-07-23T15:23:18.805Z,34.99
2023-07-23T15:25:45.427Z,34.27
2023-07-23T15:28:11.958Z,34.39
2023-07-23T15:30:38.532Z,34.20
2023-07-23T15:33:05.426Z,34.22
2023-07-23T15:35:32.506Z,34.24
2023-07-23T15:37:59.077Z,34.37
2023-07-23T15:40:25.757Z,33.98
2023-07-23T15:42:52.372Z,33.97
2023-07-23T15:45:18.979Z,33.92
2023-07-23T15:47:45.668Z,33.77
2023-07-23T15:50:12.288Z,33.83
2023-07-23T15:52:38.857Z,33.67
2023-07-23T15:55:05.806Z,33.97
2023-07-23T15:57:32.572Z,33.71
2023-07-23T15:59:59.173Z,33.84
2023-07-23T16:02:25.804Z,33.97
2023-07-23T16:04:52.529Z,33.80
2023-07-23T16:07:19.111Z,33.94
2023-07-23T16:09:45.649Z,33.46
2023-07-23T16:12:12.211Z,33.50
2023-07-23T16:14:38.782Z,33.01
2023-07-23T16:17:05.454Z,33.04
2023-07-23T16:19:32.009Z,33.37
2023-07-23T16:21:58.583Z,33.51
2023-07-23T16:24:25.218Z,33.51
2023-07-23T16:26:51.815Z,33.52
2023-07-23T16:29:18.338Z,33.55
2023-07-23T16:31:44.887Z,33.44
2023-07-23T16:34:11.456Z,33.17
2023-07-23T16:36:38.049Z,33.16
2023-07-23T16:39:04.598Z,32.97
2023-07-23T16:41:31.268Z,32.79
2023-07-23T16:43:58.056Z,32.35
2023-07-23T16:46:24.620Z,32.59
2023-07-23T16:48:51.232Z,32.36
2023-07-23T16:51:17.776Z,32.09
2023-07-23T16:53:44.337Z,32.35
2023-07-23T16:56:10.877Z,32.36
2023-07-23T16:58:37.804Z,32.38
2023-07-23T17:01:04.658Z,32.47
2023-07-23T17:03:31.276Z,32.19
2023-07-23T17:05:57.883Z,32.42
2023-07-23T17:08:24.408Z,32.39
2023-07-23T17:10:50.974Z,32.16
2023-07-23T17:13:17.734Z,31.85
2023-07-23T17:15:44.335Z,32.08
2023-07-23T17:18:10.887Z,32.37
2023-07-23T17:20:37.447Z,32.23
2023-07-23T17:23:04.006Z,31.86
2023-07-23T17:25:30.618Z,32.27
2023-07-23T17:27:57.190Z,32.09
2023-07-23T17:30:23.760Z,31.96
2023-07-23T17:32:50.413Z,32.38
2023-07-23T17:35:17.010Z,32.67
2023-07-23T17:37:43.549Z,32.39
2023-07-23T17:40:10.097Z,32.83
2023-07-23T17:42:36.639Z,32.99
2023-07-23T17:45:03.193Z,32.93
2023-07-23T17:47:29.780Z,32.80
2023-07-23T17:49:56.406Z,33.77
2023-07-23T17:52:23.015Z,33.56
2023-07-23T17:54:49.652Z,33.37
2023-07-23T17:57:16.249Z,33.28
2023-07-23T17:59:42.825Z,33.47
2023-07-23T18:02:09.376Z,33.74
2023-07-23T18:04:36.015Z,33.91
2023-07-23T18:07:02.651Z,34.00
2023-07-23T18:09:29.403Z,34.38
2023-07-23T18:11:56.075Z,34.54
2023-07-23T18:14:22.642Z,34.65
2023-07-23T18:16:49.354Z,34.90
2023-07-23T18:19:16.076Z,34.97
2023-07-23T18:21:42.689Z,35.12
2023-07-23T18:24:09.289Z,35.31
2023-07-23T18:26:35.922Z,35.30
2023-07-23T18:29:02.554Z,35.32
2023-07-23T18:31:34.653Z,35.56
2023-07-23T18:34:02.285Z,35.46
2023-07-23T18:36:29.161Z,35.35
2023-07-23T18:38:56.054Z,35.48
2023-07-23T18:41:22.606Z,35.64
2023-07-23T18:43:49.225Z,35.68
2023-07-23T18:46:15.774Z,35.63
2023-07-23T18:48:42.415Z,35.86
2023-07-23T18:51:08.994Z,35.82
2023-07-23T18:53:35.633Z,35.91
2023-07-23T18:56:02.182Z,35.88
2023-07-23T18:58:28.811Z,36.04
2023-07-23T19:00:55.398Z,36.09
2023-07-23T19:03:21.910Z,36.00
2023-07-23T19:05:48.444Z,36.06
2023-07-23T19:08:15.003Z,36.03
2023-07-23T19:10:41.559Z,36.32
2023-07-23T19:13:08.255Z,36.10
2023-07-23T19:15:34.822Z,36.27
2023-07-23T19:18:01.390Z,36.16
2023-07-23T19:20:28.054Z,35.98
2023-07-23T19:22:54.584Z,36.11
2023-07-23T19:25:21.165Z,36.13
2023-07-23T19:27:50.484Z,35.96
2023-07-23T19:30:17.149Z,36.05
2023-07-23T19:32:43.714Z,36.22
2023-07-23T19:35:10.260Z,35.94
2023-07-23T19:37:36.824Z,35.99
2023-07-23T19:40:03.384Z,36.06
2023-07-23T19:42:29.919Z,35.93
2023-07-23T19:44:56.456Z,36.06
2023-07-23T19:47:23.028Z,36.15
2023-07-23T19:49:49.569Z,36.29
2023-07-23T19:52:16.178Z,36.13
2023-07-23T19:54:42.770Z,36.42
2023-07-23T19:57:09.499Z,36.36
2023-07-23T19:59:36.033Z,36.58
2023-07-23T20:02:03.158Z,36.96
2023-07-23T20:04:29.783Z,36.92
2023-07-23T20:06:56.406Z,36.96
2023-07-23T20:09:25.921Z,37.15
2023-07-23T20:11:52.692Z,37.09
2023-07-23T20:14:19.249Z,37.77
2023-07-23T20:16:45.925Z,37.39
2023-07-23T20:19:12.631Z,37.19
2023-07-23T20:21:44.390Z,37.28
2023-07-23T20:24:11.858Z,37.68
2023-07-23T20:26:38.499Z,37.62
2023-07-23T20:29:05.329Z,37.63
2023-07-23T20:31:33.796Z,37.34
2023-07-23T20:34:02.081Z,37.61
2023-07-23T20:36:28.842Z,37.90
2023-07-23T20:38:55.603Z,37.90
2023-07-23T20:41:22.953Z,37.79
2023-07-23T20:43:49.639Z,37.64
2023-07-23T20:46:16.383Z,37.88
2023-07-23T20:48:43.042Z,37.86
2023-07-23T20:51:09.664Z,38.13
2023-07-23T20:53:36.210Z,38.02
2023-07-23T20:56:02.764Z,38.19
2023-07-23T20:58:29.347Z,38.12
2023-07-23T21:00:56.125Z,38.17
2023-07-23T21:03:22.749Z,38.14
2023-07-23T21:05:51.737Z,38.18
2023-07-23T21:08:18.480Z,38.58
2023-07-23T21:10:45.046Z,38.22
2023-07-23T21:13:11.586Z,38.45
2023-07-23T21:15:38.317Z,38.61
2023-07-23T21:18:04.961Z,38.45
2023-07-23T21:20:31.554Z,38.40
2023-07-23T21:22:58.118Z,38.42
2023-07-23T21:25:24.716Z,38.52
2023-07-23T21:27:51.288Z,38.85
2023-07-23T21:30:17.865Z,38.33
2023-07-23T21:32:44.536Z,37.91
2023-07-23T21:35:11.624Z,38.21
2023-07-23T21:37:38.638Z,38.39
2023-07-23T21:40:05.316Z,38.22
2023-07-23T21:42:31.875Z,38.77
2023-07-23T21:44:58.434Z,38.45
2023-07-23T21:47:25.046Z,38.43
2023-07-23T21:49:51.622Z,38.60
2023-07-23T21:52:18.198Z,38.23
2023-07-23T21:54:44.751Z,38.71
2023-07-23T21:57:11.359Z,38.97
2023-07-23T21:59:37.959Z,39.57
2023-07-23T22:02:04.536Z,39.29
2023-07-23T22:04:31.204Z,39.02
2023-07-23T22:06:57.730Z,38.76
2023-07-23T22:09:24.572Z,39.26
2023-07-23T22:11:51.119Z,38.75
2023-07-23T22:14:17.636Z,39.10
2023-07-23T22:16:44.329Z,38.59
2023-07-23T22:19:11.077Z,38.85
2023-07-23T22:21:38.088Z,38.76
2023-07-23T22:24:04.626Z,38.68
2023-07-23T22:26:31.317Z,39.08
2023-07-23T22:28:58.098Z,38.85
2023-07-23T22:31:24.665Z,38.77
2023-07-23T22:33:51.262Z,38.58
2023-07-23T22:36:17.801Z,38.83
2023-07-23T22:38:44.319Z,38.43
2023-07-23T22:41:10.880Z,38.63
2023-07-23T22:43:38.964Z,38.80
2023-07-23T22:46:09.284Z,38.44
2023-07-23T22:48:35.868Z,38.56
2023-07-23T22:51:03.354Z,38.60
2023-07-23T22:53:30.127Z,38.47
2023-07-23T22:55:56.757Z,38.52
2023-07-23T22:58:23.363Z,38.55
2023-07-23T23:00:49.959Z,38.46
2023-07-23T23:03:16.649Z,38.49
2023-07-23T23:05:43.414Z,38.67
2023-07-23T23:08:09.954Z,38.21
2023-07-23T23:10:36.638Z,38.36
2023-07-23T23:13:04.207Z,38.40
2023-07-23T23:15:30.822Z,38.50
2023-07-23T23:17:57.447Z,38.27
2023-07-23T23:20:24.100Z,38.31
2023-07-23T23:22:50.734Z,39.11
2023-07-23T23:25:17.330Z,38.93
2023-07-23T23:27:44.041Z,38.69
2023-07-23T23:30:10.780Z,38.61
2023-07-23T23:32:37.480Z,38.47
2023-07-23T23:35:04.137Z,39.54
2023-07-23T23:37:30.710Z,38.94
2023-07-23T23:39:57.387Z,39.22
2023-07-23T23:42:24.004Z,39.47
2023-07-23T23:44:50.603Z,39.67
2023-07-23T23:47:17.178Z,40.15
2023-07-23T23:49:43.744Z,40.01
2023-07-23T23:52:10.394Z,39.74
2023-07-23T23:54:37.182Z,40.21
2023-07-23T23:57:03.790Z,40.12
2023-07-23T23:59:30.302Z,40.42
